createdAt,value
2022-12-31T08:08:33.675Z,2.78
2022-12-31T08:09:40.691Z,2.80
2022-12-31T08:11:07.070Z,2.85
2022-12-31T08:12:11.272Z,2.86
2022-12-31T08:13:17.428Z,2.87
2022-12-31T08:14:21.798Z,2.89
2022-12-31T08:15:30.290Z,2.92
2022-12-31T08:16:32.103Z,2.92
2022-12-31T08:17:36.225Z,2.95
2022-12-31T08:18:40.765Z,2.96
2022-12-31T08:19:45.263Z,2.99
2022-12-31T08:21:22.298Z,2.98
2022-12-31T08:22:47.479Z,2.99
2022-12-31T08:24:03.162Z,3.02
2022-12-31T08:25:28.325Z,3.01
2022-12-31T08:26:38.413Z,3.01
2022-12-31T08:27:54.659Z,3.05
2022-12-31T08:29:10.541Z,3.07
2022-12-31T08:30:23.710Z,3.10
2022-12-31T08:31:33.467Z,3.10
2022-12-31T08:32:52.275Z,3.14
2022-12-31T08:34:30.996Z,3.15
2022-12-31T08:36:03.511Z,3.19
2022-12-31T08:37:13.264Z,3.21
2022-12-31T08:38:39.668Z,3.24
2022-12-31T08:39:52.175Z,3.26
2022-12-31T08:41:08.055Z,3.27
2022-12-31T08:42:26.792Z,3.29
2022-12-31T08:43:49.954Z,3.33
2022-12-31T08:44:56.991Z,3.36
2022-12-31T08:46:01.793Z,3.39
2022-12-31T08:47:21.071Z,3.42
2022-12-31T08:48:42.867Z,3.46
2022-12-31T08:49:47.057Z,3.51
2022-12-31T08:50:51.270Z,3.57
2022-12-31T08:51:55.601Z,3.60
2022-12-31T08:53:00.170Z,3.62
2022-12-31T08:54:04.438Z,3.62
2022-12-31T08:55:10.285Z,3.66
2022-12-31T08:56:17.353Z,3.69
2022-12-31T08:57:33.479Z,3.71
2022-12-31T08:58:43.242Z,3.71
2022-12-31T08:59:50.391Z,3.71
2022-12-31T09:00:57.898Z,3.74
2022-12-31T09:02:30.441Z,3.76
2022-12-31T09:03:46.409Z,3.81
2022-12-31T09:05:28.208Z,3.82
2022-12-31T09:06:46.278Z,3.84
2022-12-31T09:08:09.670Z,3.85
2022-12-31T09:09:16.866Z,3.88
2022-12-31T09:10:40.137Z,3.85
2022-12-31T09:11:47.025Z,3.87
2022-12-31T09:13:14.963Z,3.87
2022-12-31T09:14:27.703Z,3.84
2022-12-31T09:15:50.083Z,3.92
2022-12-31T09:17:25.492Z,3.98
2022-12-31T09:18:33.290Z,4.02
2022-12-31T09:19:36.845Z,4.04
2022-12-31T09:20:43.359Z,4.04
2022-12-31T09:21:47.405Z,4.04
2022-12-31T09:22:52.787Z,4.13
2022-12-31T09:23:56.996Z,4.19
2022-12-31T09:25:01.114Z,4.25
2022-12-31T09:26:08.159Z,4.28
2022-12-31T09:27:15.242Z,4.35
2022-12-31T09:28:22.167Z,4.39
2022-12-31T09:29:41.257Z,4.39
2022-12-31T09:31:00.081Z,4.39
2022-12-31T09:32:26.164Z,4.41
2022-12-31T09:33:38.907Z,4.37
2022-12-31T09:34:48.473Z,4.39
2022-12-31T09:36:01.180Z,4.39
2022-12-31T09:37:08.214Z,4.42
2022-12-31T09:38:20.802Z,4.44
2022-12-31T09:39:41.539Z,4.47
2022-12-31T09:41:04.953Z,4.50
2022-12-31T09:42:44.944Z,4.54
2022-12-31T09:43:58.985Z,4.56
2022-12-31T09:45:24.282Z,4.58
2022-12-31T09:46:46.435Z,4.60
2022-12-31T09:48:11.318Z,4.62
2022-12-31T09:49:45.094Z,4.61
2022-12-31T09:51:09.957Z,4.62
2022-12-31T09:52:17.167Z,4.64
2022-12-31T09:53:27.086Z,4.64
2022-12-31T09:54:48.918Z,4.70
2022-12-31T09:56:07.831Z,4.71
2022-12-31T09:57:20.667Z,4.75
2022-12-31T09:58:45.892Z,4.78
2022-12-31T10:00:11.075Z,4.80
2022-12-31T10:01:27.286Z,4.83
2022-12-31T10:02:58.906Z,4.85
2022-12-31T10:04:23.395Z,4.88
2022-12-31T10:05:30.624Z,4.88
2022-12-31T10:06:43.525Z,4.92
2022-12-31T10:09:41.391Z,4.88
2022-12-31T10:10:48.431Z,4.92
2022-12-31T10:12:05.282Z,4.92
2022-12-31T10:13:18.288Z,4.93
2022-12-31T10:14:56.777Z,4.93
2022-12-31T10:16:21.858Z,4.92
2022-12-31T10:17:28.971Z,4.92
2022-12-31T10:19:09.073Z,4.96
2022-12-31T10:20:49.583Z,4.98
2022-12-31T10:22:11.389Z,4.98
2022-12-31T10:23:34.910Z,4.99
2022-12-31T10:24:47.838Z,4.99
2022-12-31T10:26:03.487Z,4.98
2022-12-31T10:27:43.469Z,4.98
2022-12-31T10:28:50.457Z,4.92
2022-12-31T10:30:18.738Z,4.97
2022-12-31T10:31:37.660Z,4.97
2022-12-31T10:33:04.168Z,4.95
2022-12-31T10:34:29.369Z,4.97
2022-12-31T10:35:42.355Z,4.99
2022-12-31T10:37:10.449Z,5.00
2022-12-31T10:38:29.511Z,5.03
2022-12-31T10:39:48.370Z,5.03
2022-12-31T10:40:59.410Z,5.05
2022-12-31T10:42:34.586Z,5.03
2022-12-31T10:44:16.419Z,5.07
2022-12-31T10:45:55.350Z,5.08
2022-12-31T10:47:29.640Z,5.10
2022-12-31T10:48:39.708Z,5.13
2022-12-31T10:50:09.137Z,5.13
2022-12-31T10:51:31.279Z,5.14
2022-12-31T10:52:44.374Z,5.12
2022-12-31T10:54:15.505Z,5.05
2022-12-31T10:55:39.046Z,5.08
2022-12-31T10:57:01.224Z,5.06
2022-12-31T10:58:41.339Z,5.02
2022-12-31T10:59:51.203Z,5.02
2022-12-31T11:01:10.162Z,5.05
2022-12-31T11:02:32.407Z,5.09
2022-12-31T11:04:01.274Z,5.10
2022-12-31T11:05:27.716Z,5.13
2022-12-31T11:06:37.572Z,5.14
2022-12-31T11:08:12.973Z,5.14
2022-12-31T11:09:52.564Z,5.19
2022-12-31T11:11:21.562Z,5.22
2022-12-31T11:12:56.889Z,5.22
2022-12-31T11:14:31.516Z,5.24
2022-12-31T11:15:50.429Z,5.27
2022-12-31T11:17:12.255Z,5.28
2022-12-31T11:18:22.025Z,5.31
2022-12-31T11:19:54.428Z,5.34
2022-12-31T11:21:10.168Z,5.34
2022-12-31T11:22:39.665Z,5.36
2022-12-31T11:23:49.394Z,5.37
2022-12-31T11:25:15.439Z,5.36
2022-12-31T11:26:47.670Z,5.37
2022-12-31T11:28:14.539Z,5.36
2022-12-31T11:30:06.552Z,5.36
2022-12-31T11:31:18.905Z,5.36
2022-12-31T11:32:40.804Z,5.33
2022-12-31T11:33:55.412Z,5.34
2022-12-31T11:35:02.377Z,5.34
2022-12-31T11:36:12.086Z,5.34
2022-12-31T11:37:37.050Z,5.36
2022-12-31T11:38:51.845Z,5.37
2022-12-31T11:40:16.881Z,5.38
2022-12-31T11:41:41.874Z,5.40
2022-12-31T11:43:00.621Z,5.40
2022-12-31T11:44:32.994Z,5.38
2022-12-31T11:46:12.032Z,5.40
2022-12-31T11:50:23.996Z,5.33
2022-12-31T11:51:34.020Z,5.30
2022-12-31T11:52:46.954Z,5.29
2022-12-31T11:54:16.475Z,5.28
2022-12-31T11:55:32.534Z,5.28
2022-12-31T11:58:50.610Z,5.28
2022-12-31T11:59:59.128Z,5.28
2022-12-31T12:01:14.834Z,5.26
2022-12-31T12:02:35.659Z,5.28
2022-12-31T12:03:42.759Z,5.29
2022-12-31T12:04:51.571Z,5.29
2022-12-31T12:05:58.092Z,5.30
2022-12-31T12:07:14.821Z,5.32
2022-12-31T12:08:40.608Z,5.32
2022-12-31T12:09:47.841Z,5.37
2022-12-31T12:10:57.325Z,5.36
2022-12-31T12:12:04.692Z,5.36
2022-12-31T12:13:11.869Z,5.39
2022-12-31T12:14:43.117Z,5.39
2022-12-31T12:15:57.981Z,5.41
2022-12-31T12:17:05.971Z,5.41
2022-12-31T12:18:13.350Z,5.40
2022-12-31T12:19:21.237Z,5.40
2022-12-31T12:20:43.212Z,5.37
2022-12-31T12:21:52.214Z,5.41
2022-12-31T12:22:58.533Z,5.41
2022-12-31T12:24:08.254Z,5.41
2022-12-31T12:25:18.207Z,4.96
2022-12-31T12:26:38.691Z,5.41
2022-12-31T12:27:46.554Z,5.40
2022-12-31T12:28:50.620Z,5.40
2022-12-31T12:29:54.745Z,5.39
2022-12-31T12:31:04.605Z,5.37
2022-12-31T12:32:20.489Z,5.38
2022-12-31T12:33:24.975Z,5.37
2022-12-31T12:34:38.064Z,5.35
2022-12-31T12:35:45.113Z,5.35
2022-12-31T12:36:49.293Z,5.33
2022-12-31T12:38:05.445Z,5.34
2022-12-31T12:39:12.979Z,5.33
2022-12-31T12:40:24.067Z,5.33
2022-12-31T12:41:31.941Z,5.28
2022-12-31T12:42:48.973Z,5.28
2022-12-31T12:43:45.333Z,5.28
2022-12-31T12:44:49.462Z,5.28
2022-12-31T12:45:55.749Z,5.27
2022-12-31T12:47:06.436Z,5.26
2022-12-31T12:48:16.323Z,5.24
2022-12-31T12:49:39.069Z,5.25
2022-12-31T12:50:46.552Z,5.26
2022-12-31T12:52:04.414Z,5.27
2022-12-31T12:53:11.617Z,5.26
2022-12-31T12:54:30.574Z,5.24
2022-12-31T12:55:48.871Z,5.25
2022-12-31T12:57:06.915Z,5.24
2022-12-31T12:58:29.288Z,5.23
2022-12-31T13:00:08.058Z,5.24
2022-12-31T13:01:33.294Z,5.21
2022-12-31T13:02:52.180Z,5.20
2022-12-31T13:04:33.566Z,5.19
2022-12-31T13:05:27.931Z,5.17
2022-12-31T13:06:52.747Z,5.17
2022-12-31T13:08:32.778Z,5.17
2022-12-31T13:09:48.458Z,5.17
2022-12-31T13:11:13.753Z,5.11
2022-12-31T13:13:13.852Z,5.12
2022-12-31T13:13:50.074Z,5.07
2022-12-31T13:14:57.193Z,5.08
2022-12-31T13:16:22.128Z,5.05
2022-12-31T13:18:06.302Z,5.04
2022-12-31T13:19:31.816Z,4.99
2022-12-31T13:21:02.489Z,5.00
2022-12-31T13:22:18.542Z,4.97
2022-12-31T13:23:25.768Z,4.95
2022-12-31T13:24:37.338Z,4.96
2022-12-31T13:25:59.801Z,4.96
2022-12-31T13:27:24.931Z,4.96
2022-12-31T13:28:33.418Z,4.94
2022-12-31T13:29:43.004Z,4.93
2022-12-31T13:30:50.099Z,4.92
2022-12-31T13:31:57.469Z,4.91
2022-12-31T13:33:22.689Z,4.89
2022-12-31T13:34:35.868Z,4.89
2022-12-31T13:35:58.405Z,4.89
2022-12-31T13:37:05.483Z,4.88
2022-12-31T13:38:17.127Z,4.85
2022-12-31T13:39:26.755Z,4.82
2022-12-31T13:40:54.412Z,4.82
2022-12-31T13:42:09.718Z,4.81
2022-12-31T13:43:32.985Z,4.79
2022-12-31T13:44:41.688Z,4.75
2022-12-31T13:45:48.091Z,4.75
2022-12-31T13:46:55.394Z,4.71
2022-12-31T13:48:05.482Z,4.68
2022-12-31T13:49:18.095Z,4.68
2022-12-31T13:50:34.079Z,4.65
2022-12-31T13:51:46.986Z,4.65
2022-12-31T13:53:03.200Z,4.61
2022-12-31T13:54:26.648Z,4.59
2022-12-31T13:55:39.631Z,4.57
2022-12-31T13:56:48.255Z,4.56
2022-12-31T13:58:04.069Z,4.56
2022-12-31T13:59:28.713Z,4.53
2022-12-31T14:00:35.724Z,4.52
2022-12-31T14:01:54.272Z,4.52
2022-12-31T14:03:28.496Z,4.52
2022-12-31T14:04:51.828Z,4.51
2022-12-31T14:06:18.439Z,4.49
2022-12-31T14:07:40.505Z,4.49
2022-12-31T14:08:45.565Z,4.46
2022-12-31T14:09:51.240Z,4.44
2022-12-31T14:11:01.161Z,4.41
2022-12-31T14:12:10.876Z,4.40
2022-12-31T14:13:37.252Z,4.40
2022-12-31T14:14:59.306Z,4.40
2022-12-31T14:16:15.032Z,4.40
2022-12-31T14:19:16.815Z,4.42
2022-12-31T14:20:43.639Z,4.42
2022-12-31T14:21:56.659Z,3.15
2022-12-31T14:23:21.747Z,4.44
2022-12-31T14:24:33.085Z,4.42
2022-12-31T14:25:46.207Z,4.39
2022-12-31T14:26:59.050Z,4.38
2022-12-31T14:28:07.123Z,4.36
2022-12-31T14:29:17.192Z,4.35
2022-12-31T14:30:28.432Z,4.35
2022-12-31T14:31:50.240Z,4.34
2022-12-31T14:33:13.763Z,4.32
2022-12-31T14:34:30.067Z,4.28
2022-12-31T14:36:01.817Z,4.28
2022-12-31T14:37:17.512Z,4.21
2022-12-31T14:38:54.722Z,4.18
2022-12-31T14:40:26.934Z,4.18
2022-12-31T14:41:51.810Z,4.11
2022-12-31T14:43:27.115Z,4.08
2022-12-31T14:44:39.481Z,4.05
2022-12-31T14:46:12.240Z,4.00
2022-12-31T14:47:29.206Z,3.97
2022-12-31T14:48:52.694Z,3.96
2022-12-31T14:50:04.066Z,3.95
2022-12-31T14:51:09.536Z,3.94
2022-12-31T14:52:26.705Z,3.96
2022-12-31T14:53:36.786Z,3.93
2022-12-31T14:54:41.363Z,3.94
2022-12-31T14:55:47.144Z,3.90
2022-12-31T14:56:53.578Z,3.89
2022-12-31T14:58:27.244Z,3.87
2022-12-31T14:59:23.790Z,3.90
2022-12-31T15:00:40.334Z,3.89
2022-12-31T15:01:48.819Z,3.87
2022-12-31T15:03:01.821Z,3.87
2022-12-31T15:04:10.615Z,3.88
2022-12-31T15:05:17.708Z,3.89
2022-12-31T15:06:39.654Z,3.89
2022-12-31T15:07:58.742Z,3.92
2022-12-31T15:09:37.653Z,3.91
2022-12-31T15:10:44.785Z,3.93
2022-12-31T15:12:09.703Z,3.90
2022-12-31T15:13:39.549Z,3.93
2022-12-31T15:15:03.285Z,3.91
2022-12-31T15:16:43.671Z,3.93
2022-12-31T15:18:15.100Z,3.93
2022-12-31T15:19:30.848Z,3.94
2022-12-31T15:20:40.818Z,3.96
2022-12-31T15:21:53.851Z,3.95
2022-12-31T15:22:58.060Z,3.95
2022-12-31T15:24:02.739Z,3.96
2022-12-31T15:25:35.376Z,3.96
2022-12-31T15:26:38.214Z,3.97
2022-12-31T15:27:51.888Z,3.96
2022-12-31T15:29:02.524Z,3.95
2022-12-31T15:30:07.903Z,3.97
2022-12-31T15:31:18.655Z,3.96
2022-12-31T15:32:27.092Z,3.96
2022-12-31T15:33:41.426Z,3.95
2022-12-31T15:34:47.970Z,3.97
2022-12-31T15:35:54.763Z,3.97
2022-12-31T15:37:01.565Z,4.00
2022-12-31T15:38:17.415Z,4.00
2022-12-31T15:39:34.912Z,4.05
2022-12-31T15:40:47.800Z,4.05
2022-12-31T15:42:35.675Z,4.07
2022-12-31T15:43:26.019Z,4.08
2022-12-31T15:44:51.204Z,4.07
2022-12-31T15:45:58.105Z,4.10
2022-12-31T15:47:11.188Z,4.10
2022-12-31T15:48:20.890Z,4.10
2022-12-31T15:49:26.351Z,4.11
2022-12-31T15:50:36.569Z,4.13
2022-12-31T15:52:02.832Z,4.15
2022-12-31T15:53:07.777Z,4.15
2022-12-31T15:54:23.288Z,4.16
2022-12-31T15:55:42.276Z,4.15
2022-12-31T15:56:46.577Z,4.18
2022-12-31T15:57:52.932Z,4.20
2022-12-31T15:58:59.530Z,4.18
2022-12-31T16:00:06.633Z,4.20
2022-12-31T16:01:14.098Z,4.18
2022-12-31T16:02:23.599Z,4.17
2022-12-31T16:03:29.717Z,4.16
2022-12-31T16:04:35.458Z,4.18
2022-12-31T16:05:39.741Z,4.15
2022-12-31T16:06:50.619Z,4.16
2022-12-31T16:07:57.375Z,4.18
2022-12-31T16:09:01.619Z,4.18
2022-12-31T16:10:07.041Z,4.19
2022-12-31T16:11:17.903Z,4.21
2022-12-31T16:12:33.232Z,4.20
2022-12-31T16:13:39.571Z,4.24
2022-12-31T16:14:46.696Z,4.27
2022-12-31T16:15:53.543Z,4.30
2022-12-31T16:17:00.412Z,4.31
2022-12-31T16:18:09.159Z,4.34
2022-12-31T16:19:27.258Z,4.35
2022-12-31T16:20:33.030Z,4.40
2022-12-31T16:21:41.558Z,4.43
2022-12-31T16:22:46.002Z,4.44
2022-12-31T16:23:55.407Z,4.47
2022-12-31T16:26:08.327Z,4.51
2022-12-31T16:27:18.591Z,4.51
2022-12-31T16:28:28.454Z,4.52
2022-12-31T16:29:35.981Z,4.53
2022-12-31T16:30:56.937Z,4.53
2022-12-31T16:32:02.950Z,4.53
2022-12-31T16:33:11.381Z,4.53
2022-12-31T16:34:18.635Z,4.53
2022-12-31T16:35:46.328Z,4.53
2022-12-31T16:37:04.593Z,4.54
2022-12-31T16:38:15.644Z,4.54
2022-12-31T16:39:58.487Z,4.52
2022-12-31T16:41:05.204Z,4.51
2022-12-31T16:42:21.291Z,4.51
2022-12-31T16:43:39.568Z,4.51
2022-12-31T16:44:43.748Z,4.51
2022-12-31T16:45:49.122Z,4.51
2022-12-31T16:46:56.056Z,4.52
2022-12-31T16:48:03.139Z,4.54
2022-12-31T16:49:16.440Z,4.55
2022-12-31T16:50:24.393Z,4.55
2022-12-31T16:51:33.632Z,4.57
2022-12-31T16:52:43.617Z,4.58
2022-12-31T16:53:49.070Z,4.54
2022-12-31T16:54:54.677Z,4.53
2022-12-31T16:56:04.833Z,4.53
2022-12-31T16:57:11.911Z,4.53
2022-12-31T16:58:29.107Z,4.51
2022-12-31T16:59:36.479Z,4.50
2022-12-31T17:00:41.378Z,4.50
2022-12-31T17:01:46.808Z,4.51
2022-12-31T17:03:05.825Z,4.53
2022-12-31T17:04:15.005Z,4.54
2022-12-31T17:05:26.054Z,4.54
2022-12-31T17:06:32.358Z,4.51
2022-12-31T17:07:43.643Z,4.50
2022-12-31T17:08:56.713Z,4.49
2022-12-31T17:10:21.427Z,4.50
2022-12-31T17:11:28.472Z,4.50
2022-12-31T17:13:16.954Z,4.50
2022-12-31T17:13:46.467Z,4.49
2022-12-31T17:14:57.245Z,4.51
2022-12-31T17:16:05.896Z,4.52
2022-12-31T17:17:11.611Z,4.51
2022-12-31T17:18:22.543Z,4.51
2022-12-31T17:19:44.421Z,4.50
2022-12-31T17:20:51.304Z,4.52
2022-12-31T17:21:55.648Z,4.53
2022-12-31T17:23:02.744Z,4.55
2022-12-31T17:24:09.015Z,4.55
2022-12-31T17:25:35.852Z,4.55
2022-12-31T17:26:43.381Z,4.57
2022-12-31T17:28:01.597Z,4.54
2022-12-31T17:29:05.948Z,4.54
2022-12-31T17:30:29.525Z,4.52
2022-12-31T17:31:41.168Z,4.49
2022-12-31T17:32:50.608Z,4.47
2022-12-31T17:33:57.401Z,4.47
2022-12-31T17:35:07.390Z,4.44
2022-12-31T17:36:23.501Z,4.45
2022-12-31T17:37:30.421Z,4.45
2022-12-31T17:38:38.443Z,4.45
2022-12-31T17:39:48.280Z,4.39
2022-12-31T17:40:56.632Z,4.37
2022-12-31T17:42:02.331Z,4.38
2022-12-31T17:43:07.983Z,4.40
2022-12-31T17:44:18.051Z,4.40
2022-12-31T17:45:25.556Z,4.42
2022-12-31T17:46:31.730Z,4.40
2022-12-31T17:47:41.647Z,4.42
2022-12-31T17:48:47.932Z,4.42
2022-12-31T17:49:53.819Z,4.40
2022-12-31T17:51:00.480Z,4.40
2022-12-31T17:52:23.567Z,4.37
2022-12-31T17:53:28.238Z,4.38
2022-12-31T17:54:32.565Z,4.37
2022-12-31T17:55:36.979Z,4.37
2022-12-31T17:56:45.290Z,4.32
2022-12-31T17:57:56.526Z,4.34
2022-12-31T17:59:06.529Z,4.36
2022-12-31T18:00:21.902Z,4.36
2022-12-31T18:02:37.489Z,4.34
2022-12-31T18:03:03.057Z,4.31
2022-12-31T18:04:16.817Z,4.28
2022-12-31T18:05:24.014Z,4.25
2022-12-31T18:06:28.251Z,4.25
2022-12-31T18:07:34.082Z,4.25
2022-12-31T18:08:38.608Z,4.27
2022-12-31T18:09:42.699Z,4.28
2022-12-31T18:10:46.879Z,4.27
2022-12-31T18:12:01.646Z,4.28
2022-12-31T18:13:14.456Z,4.26
2022-12-31T18:14:18.556Z,4.25
2022-12-31T18:15:25.094Z,4.25
2022-12-31T18:16:29.806Z,4.25
2022-12-31T18:17:35.647Z,4.25
2022-12-31T18:18:39.691Z,4.24
2022-12-31T18:20:04.064Z,4.24
2022-12-31T18:20:54.415Z,4.24
2022-12-31T18:22:03.010Z,4.23
2022-12-31T18:23:08.555Z,4.22
2022-12-31T18:24:17.270Z,4.20
2022-12-31T18:25:24.448Z,4.20
2022-12-31T18:26:31.403Z,4.19
2022-12-31T18:27:35.460Z,4.20
2022-12-31T18:28:39.657Z,4.17
2022-12-31T18:29:46.360Z,4.19
2022-12-31T18:30:51.147Z,4.19
2022-12-31T18:31:55.714Z,4.17
2022-12-31T18:33:01.237Z,4.17
2022-12-31T18:34:13.202Z,4.17
2022-12-31T18:36:29.732Z,4.17
2022-12-31T18:37:35.811Z,4.17
2022-12-31T18:38:40.968Z,4.17
2022-12-31T18:39:45.604Z,4.17
2022-12-31T18:40:58.536Z,4.18
2022-12-31T18:43:04.900Z,4.20
2022-12-31T18:43:29.572Z,4.20
2022-12-31T18:44:33.767Z,4.25
2022-12-31T18:45:41.402Z,4.25
2022-12-31T18:46:48.221Z,4.26
2022-12-31T18:47:53.440Z,4.26
2022-12-31T18:49:56.367Z,4.30
2022-12-31T18:50:19.282Z,4.31
2022-12-31T18:51:31.515Z,4.32
2022-12-31T18:52:30.549Z,4.34
2022-12-31T18:53:37.460Z,4.33
2022-12-31T18:54:41.459Z,4.37
2022-12-31T18:55:48.999Z,4.40
2022-12-31T18:56:57.049Z,4.42
2022-12-31T18:57:58.990Z,4.42
2022-12-31T18:59:03.488Z,4.42
2022-12-31T19:00:14.673Z,4.46
2022-12-31T19:01:37.299Z,4.47
2022-12-31T19:02:41.547Z,4.50
2022-12-31T19:03:45.595Z,4.51
2022-12-31T19:04:49.616Z,4.53
2022-12-31T19:05:55.121Z,4.56
2022-12-31T19:06:59.333Z,4.59
2022-12-31T19:08:03.497Z,4.60
2022-12-31T19:09:23.691Z,4.60
2022-12-31T19:10:16.878Z,4.59
2022-12-31T19:11:21.907Z,4.62
2022-12-31T19:12:26.087Z,4.60
2022-12-31T19:13:30.185Z,4.61
2022-12-31T19:14:36.988Z,4.60
2022-12-31T19:15:49.245Z,4.59
2022-12-31T19:16:54.389Z,4.60
2022-12-31T19:17:58.784Z,4.58
2022-12-31T19:19:08.447Z,4.55
2022-12-31T19:20:08.916Z,4.51
2022-12-31T19:21:19.219Z,4.53
2022-12-31T19:22:23.266Z,4.53
2022-12-31T19:23:27.404Z,4.53
2022-12-31T19:24:34.538Z,4.48
2022-12-31T19:25:41.630Z,4.50
2022-12-31T19:26:45.923Z,4.48
2022-12-31T19:27:50.894Z,4.42
2022-12-31T19:28:55.055Z,4.43
2022-12-31T19:30:00.720Z,4.43
2022-12-31T19:31:04.871Z,4.42
2022-12-31T19:32:11.696Z,4.44
2022-12-31T19:33:16.828Z,4.41
2022-12-31T19:34:21.097Z,4.41
2022-12-31T19:35:25.581Z,4.39
2022-12-31T19:36:29.654Z,4.37
2022-12-31T19:37:37.992Z,4.38
2022-12-31T19:38:44.204Z,4.35
2022-12-31T19:39:48.239Z,4.35
2022-12-31T19:40:56.528Z,4.34
2022-12-31T19:41:59.936Z,4.31
2022-12-31T19:43:04.340Z,4.31
2022-12-31T19:44:11.471Z,4.32
2022-12-31T19:45:18.302Z,4.27
2022-12-31T19:46:22.947Z,4.27
2022-12-31T19:47:29.876Z,4.26
2022-12-31T19:48:35.433Z,4.27
2022-12-31T19:49:39.662Z,4.24
2022-12-31T19:50:46.853Z,4.26
2022-12-31T19:51:50.997Z,4.27
2022-12-31T19:52:58.083Z,4.29
2022-12-31T19:54:02.186Z,4.28
2022-12-31T19:55:06.853Z,4.27
2022-12-31T19:56:16.974Z,4.28
2022-12-31T19:57:21.040Z,4.28
2022-12-31T19:58:27.225Z,4.32
2022-12-31T19:59:31.207Z,4.34
2022-12-31T20:00:35.411Z,4.36
2022-12-31T20:01:41.106Z,4.37
2022-12-31T20:02:51.143Z,4.37
2022-12-31T20:03:55.518Z,4.37
2022-12-31T20:05:01.180Z,4.37
2022-12-31T20:06:08.214Z,4.37
2022-12-31T20:07:12.327Z,4.37
2022-12-31T20:08:16.447Z,4.36
2022-12-31T20:09:20.564Z,4.34
2022-12-31T20:10:24.762Z,4.34
2022-12-31T20:11:28.939Z,4.32
2022-12-31T20:12:34.084Z,4.32
2022-12-31T20:13:40.696Z,4.31
2022-12-31T20:14:44.806Z,4.30
2022-12-31T20:15:48.848Z,4.31
2022-12-31T20:16:53.023Z,4.33
2022-12-31T20:17:59.643Z,4.32
2022-12-31T20:19:05.360Z,4.31
2022-12-31T20:20:09.983Z,4.32
2022-12-31T20:21:16.902Z,4.32
2022-12-31T20:22:21.161Z,4.32
2022-12-31T20:23:25.132Z,4.33
2022-12-31T20:24:29.165Z,4.32
2022-12-31T20:26:08.871Z,4.32
2022-12-31T20:27:18.225Z,4.34
2022-12-31T20:28:18.739Z,4.33
2022-12-31T20:29:22.816Z,4.32
2022-12-31T20:30:26.923Z,4.31
2022-12-31T20:31:36.069Z,4.33
2022-12-31T20:32:42.573Z,4.34
2022-12-31T20:33:48.174Z,4.34
2022-12-31T20:34:55.544Z,4.35
2022-12-31T20:36:08.495Z,4.37
2022-12-31T20:37:12.522Z,4.41
2022-12-31T20:38:16.791Z,4.45
2022-12-31T20:39:20.763Z,4.45
2022-12-31T20:40:35.117Z,4.45
2022-12-31T20:41:40.769Z,-0.78
2022-12-31T20:42:56.210Z,4.51
2022-12-31T20:43:52.551Z,4.54
2022-12-31T20:44:59.449Z,4.55
2022-12-31T20:46:12.658Z,4.54
2022-12-31T20:47:23.143Z,4.56
2022-12-31T20:48:26.993Z,4.58
2022-12-31T20:50:09.174Z,4.57
2022-12-31T20:50:44.595Z,4.61
2022-12-31T20:51:52.348Z,4.62
2022-12-31T20:52:57.386Z,4.64
2022-12-31T20:54:07.136Z,4.66
2022-12-31T20:55:14.005Z,4.66
2022-12-31T20:56:18.622Z,4.66
2022-12-31T20:57:22.665Z,4.68
2022-12-31T20:58:28.260Z,4.66
2022-12-31T20:59:35.361Z,4.65
2022-12-31T21:00:39.782Z,4.66
2022-12-31T21:02:20.171Z,4.65
2022-12-31T21:03:00.615Z,4.68
2022-12-31T21:04:05.805Z,4.69
2022-12-31T21:05:09.943Z,4.70
2022-12-31T21:06:16.548Z,4.73
2022-12-31T21:07:25.145Z,4.74
2022-12-31T21:08:34.603Z,4.77
2022-12-31T21:09:40.628Z,4.78
2022-12-31T21:10:43.675Z,4.78
2022-12-31T21:11:50.267Z,4.79
2022-12-31T21:14:15.481Z,4.79
2022-12-31T21:15:31.071Z,4.77
2022-12-31T21:16:39.089Z,4.77
2022-12-31T21:17:42.809Z,4.76
2022-12-31T21:18:51.260Z,4.79
2022-12-31T21:19:55.343Z,4.82
2022-12-31T21:21:02.440Z,4.80
2022-12-31T21:22:06.550Z,4.81
2022-12-31T21:23:12.137Z,4.80
2022-12-31T21:24:21.770Z,4.79
2022-12-31T21:25:23.669Z,4.78
2022-12-31T21:26:28.573Z,4.78
2022-12-31T21:27:32.719Z,4.81
2022-12-31T21:28:37.044Z,4.79
2022-12-31T21:30:02.061Z,4.75
2022-12-31T21:30:48.576Z,4.78
2022-12-31T21:31:56.568Z,4.77
2022-12-31T21:33:00.823Z,4.71
2022-12-31T21:34:04.956Z,4.70
2022-12-31T21:35:41.095Z,4.69
2022-12-31T21:36:16.243Z,4.63
2022-12-31T21:37:20.283Z,4.68
2022-12-31T21:38:24.367Z,4.66
2022-12-31T21:39:40.594Z,4.66
2022-12-31T21:41:11.228Z,4.64
2022-12-31T21:43:39.555Z,4.68
2022-12-31T21:44:47.318Z,4.69
2022-12-31T21:46:02.961Z,4.69
2022-12-31T21:47:34.336Z,4.68
2022-12-31T21:48:16.064Z,4.74
2022-12-31T21:49:20.202Z,4.75
2022-12-31T21:50:24.280Z,4.75
2022-12-31T21:51:30.391Z,4.77
2022-12-31T21:52:36.205Z,4.79
2022-12-31T21:53:40.428Z,4.81
2022-12-31T21:54:44.508Z,4.85
2022-12-31T21:55:48.922Z,4.86
2022-12-31T21:57:05.616Z,4.88
2022-12-31T21:58:25.351Z,4.88
2022-12-31T21:59:06.311Z,4.87
2022-12-31T22:00:41.024Z,4.88
2022-12-31T22:01:23.305Z,4.90
2022-12-31T22:02:59.725Z,4.88
2022-12-31T22:04:01.725Z,4.90
2022-12-31T22:05:14.985Z,4.92
2022-12-31T22:06:18.035Z,4.93
2022-12-31T22:07:26.751Z,4.92
2022-12-31T22:08:34.629Z,4.93
2022-12-31T22:09:39.906Z,4.95
2022-12-31T22:10:51.951Z,4.98
2022-12-31T22:12:00.580Z,4.96
2022-12-31T22:13:06.338Z,5.00
2022-12-31T22:14:17.741Z,5.02
2022-12-31T22:15:21.998Z,5.03
2022-12-31T22:17:20.177Z,5.03
2022-12-31T22:18:14.969Z,5.06
2022-12-31T22:21:39.398Z,5.08
2022-12-31T22:24:10.951Z,5.10
2022-12-31T22:25:39.534Z,5.12
2022-12-31T22:28:39.529Z,5.14
2022-12-31T22:29:36.522Z,5.15
2022-12-31T22:30:58.199Z,5.16
2022-12-31T22:32:01.424Z,5.17
2022-12-31T22:33:05.765Z,5.19
2022-12-31T22:36:16.500Z,5.20
2022-12-31T22:37:54.832Z,5.23
2022-12-31T22:38:30.613Z,5.22
2022-12-31T22:39:43.693Z,3.92
2022-12-31T22:40:52.745Z,5.23
2022-12-31T22:41:56.969Z,5.23
2022-12-31T22:43:01.144Z,5.22
2022-12-31T22:44:05.371Z,5.22
2022-12-31T22:45:12.169Z,5.20
2022-12-31T22:46:30.937Z,5.20
2022-12-31T22:47:36.668Z,5.23
2022-12-31T22:48:42.921Z,5.22
2022-12-31T22:49:46.997Z,5.21
2022-12-31T22:51:02.191Z,5.23
2022-12-31T22:52:08.959Z,5.24
2022-12-31T22:54:52.809Z,5.23
2022-12-31T22:54:56.367Z,5.22
2022-12-31T22:56:18.526Z,5.23
2022-12-31T22:57:20.304Z,5.25
2022-12-31T23:03:11.310Z,5.40
2022-12-31T23:04:15.401Z,5.25
2022-12-31T23:05:19.496Z,5.24
2022-12-31T23:06:39.264Z,5.27
2022-12-31T23:08:12.836Z,5.27
2022-12-31T23:09:13.613Z,5.28
2022-12-31T23:10:29.450Z,5.31
2022-12-31T23:11:41.597Z,5.31
2022-12-31T23:12:47.370Z,5.35
2022-12-31T23:13:52.242Z,5.36
2022-12-31T23:14:58.404Z,5.36
2022-12-31T23:16:04.382Z,5.36
2022-12-31T23:17:29.932Z,5.39
2022-12-31T23:18:21.631Z,5.38
2022-12-31T23:19:25.408Z,5.41
2022-12-31T23:20:29.502Z,5.41
2022-12-31T23:21:56.054Z,5.44
2022-12-31T23:22:52.579Z,5.44
2022-12-31T23:24:01.357Z,5.46
2022-12-31T23:25:05.888Z,5.47
2022-12-31T23:26:10.379Z,5.49
2022-12-31T23:27:22.739Z,5.49
2022-12-31T23:28:28.482Z,5.52
2022-12-31T23:29:34.173Z,5.52
2022-12-31T23:30:39.919Z,5.54
2022-12-31T23:31:45.709Z,5.54
2022-12-31T23:32:49.799Z,5.57
2022-12-31T23:33:53.891Z,5.57
2022-12-31T23:34:58.195Z,5.60
2022-12-31T23:36:07.663Z,5.62
2022-12-31T23:37:14.877Z,5.63
2022-12-31T23:38:19.661Z,5.64
2022-12-31T23:39:23.800Z,5.64
2022-12-31T23:40:33.091Z,5.64
2022-12-31T23:41:36.959Z,5.64
2022-12-31T23:42:40.960Z,5.61
2022-12-31T23:43:45.450Z,5.62
2022-12-31T23:44:58.629Z,5.62
2022-12-31T23:46:03.035Z,5.62
2022-12-31T23:47:10.536Z,5.61
2022-12-31T23:48:16.032Z,5.61
2022-12-31T23:49:22.430Z,5.61
2022-12-31T23:50:26.889Z,5.61
2022-12-31T23:51:33.841Z,5.61
2022-12-31T23:52:38.142Z,5.61
2022-12-31T23:53:42.359Z,5.61
2022-12-31T23:54:46.620Z,5.59
2022-12-31T23:55:54.910Z,5.60
2022-12-31T23:56:59.205Z,5.60
2022-12-31T23:58:03.527Z,5.62
2022-12-31T23:59:13.181Z,5.65
